sensor_id;sensor_type;location;lat;lon;timestamp;P1;durP1;ratioP1;P2;durP2;ratioP2
15285;SDS011;7744;52.172;10.668;2022-08-20T00:00:58;9.07;;;8.20;;
15285;SDS011;7744;52.172;10.668;2022-08-20T00:03:35;9.52;;;8.65;;
15285;SDS011;7744;52.172;10.668;2022-08-20T00:06:10;9.95;;;9.15;;
15285;SDS011;7744;52.172;10.668;2022-08-20T00:08:37;10.32;;;9.43;;
15285;SDS011;7744;52.172;10.668;2022-08-20T00:11:04;10.07;;;9.27;;
15285;SDS011;7744;52.172;10.668;2022-08-20T00:13:35;10.80;;;9.32;;
15285;SDS011;7744;52.172;10.668;2022-08-20T00:16:02;9.48;;;8.68;;
15285;SDS011;7744;52.172;10.668;2022-08-20T00:18:28;9.35;;;8.55;;
15285;SDS011;7744;52.172;10.668;2022-08-20T00:20:54;8.60;;;7.80;;
15285;SDS011;7744;52.172;10.668;2022-08-20T00:23:21;8.38;;;7.57;;
15285;SDS011;7744;52.172;10.668;2022-08-20T00:25:47;8.23;;;7.53;;
15285;SDS011;7744;52.172;10.668;2022-08-20T00:28:14;7.93;;;7.20;;
15285;SDS011;7744;52.172;10.668;2022-08-20T00:30:40;8.25;;;7.45;;
15285;SDS011;7744;52.172;10.668;2022-08-20T00:33:11;8.18;;;7.38;;
15285;SDS011;7744;52.172;10.668;2022-08-20T00:35:39;7.53;;;6.93;;
15285;SDS011;7744;52.172;10.668;2022-08-20T00:38:05;7.85;;;7.15;;
15285;SDS011;7744;52.172;10.668;2022-08-20T00:40:37;7.93;;;7.28;;
15285;SDS011;7744;52.172;10.668;2022-08-20T00:43:04;7.82;;;7.22;;
15285;SDS011;7744;52.172;10.668;2022-08-20T00:45:31;8.18;;;7.47;;
15285;SDS011;7744;52.172;10.668;2022-08-20T00:47:57;8.13;;;7.43;;
15285;SDS011;7744;52.172;10.668;2022-08-20T00:50:34;8.35;;;7.65;;
15285;SDS011;7744;52.172;10.668;2022-08-20T00:53:00;8.57;;;7.78;;
15285;SDS011;7744;52.172;10.668;2022-08-20T00:55:27;8.95;;;8.18;;
15285;SDS011;7744;52.172;10.668;2022-08-20T00:57:55;9.18;;;8.38;;
15285;SDS011;7744;52.172;10.668;2022-08-20T01:00:29;9.57;;;8.70;;
15285;SDS011;7744;52.172;10.668;2022-08-20T01:02:56;8.93;;;8.23;;
15285;SDS011;7744;52.172;10.668;2022-08-20T01:05:24;9.15;;;8.35;;
15285;SDS011;7744;52.172;10.668;2022-08-20T01:07:50;9.73;;;8.27;;
15285;SDS011;7744;52.172;10.668;2022-08-20T01:10:18;9.00;;;8.30;;
15285;SDS011;7744;52.172;10.668;2022-08-20T01:12:46;8.85;;;8.05;;
15285;SDS011;7744;52.172;10.668;2022-08-20T01:15:13;9.70;;;8.80;;
15285;SDS011;7744;52.172;10.668;2022-08-20T01:17:48;8.63;;;7.95;;
15285;SDS011;7744;52.172;10.668;2022-08-20T01:20:19;8.95;;;8.25;;
15285;SDS011;7744;52.172;10.668;2022-08-20T01:22:54;8.70;;;7.90;;
15285;SDS011;7744;52.172;10.668;2022-08-20T01:28:08;8.20;;;7.50;;
15285;SDS011;7744;52.172;10.668;2022-08-20T01:30:34;9.73;;;8.73;;
15285;SDS011;7744;52.172;10.668;2022-08-20T01:33:01;9.27;;;8.48;;
15285;SDS011;7744;52.172;10.668;2022-08-20T01:35:27;9.45;;;8.48;;
15285;SDS011;7744;52.172;10.668;2022-08-20T01:37:54;8.95;;;8.18;;
15285;SDS011;7744;52.172;10.668;2022-08-20T01:40:23;9.20;;;8.40;;
15285;SDS011;7744;52.172;10.668;2022-08-20T01:42:52;9.02;;;8.32;;
15285;SDS011;7744;52.172;10.668;2022-08-20T01:45:18;9.38;;;8.63;;
15285;SDS011;7744;52.172;10.668;2022-08-20T01:47:44;9.95;;;9.05;;
15285;SDS011;7744;52.172;10.668;2022-08-20T01:50:14;9.45;;;8.70;;
15285;SDS011;7744;52.172;10.668;2022-08-20T01:52:45;9.93;;;9.10;;
15285;SDS011;7744;52.172;10.668;2022-08-20T01:55:15;10.25;;;9.25;;
15285;SDS011;7744;52.172;10.668;2022-08-20T01:57:42;9.63;;;8.73;;
15285;SDS011;7744;52.172;10.668;2022-08-20T02:00:09;9.50;;;8.50;;
15285;SDS011;7744;52.172;10.668;2022-08-20T02:02:37;10.60;;;9.60;;
15285;SDS011;7744;52.172;10.668;2022-08-20T02:05:03;11.15;;;10.13;;
15285;SDS011;7744;52.172;10.668;2022-08-20T02:07:29;10.65;;;9.70;;
15285;SDS011;7744;52.172;10.668;2022-08-20T02:09:56;12.32;;;11.18;;
15285;SDS011;7744;52.172;10.668;2022-08-20T02:12:22;11.57;;;10.55;;
15285;SDS011;7744;52.172;10.668;2022-08-20T02:14:49;11.60;;;10.60;;
15285;SDS011;7744;52.172;10.668;2022-08-20T02:17:16;11.02;;;10.13;;
15285;SDS011;7744;52.172;10.668;2022-08-20T02:19:45;11.52;;;10.63;;
15285;SDS011;7744;52.172;10.668;2022-08-20T02:22:18;11.50;;;10.50;;
15285;SDS011;7744;52.172;10.668;2022-08-20T02:24:45;11.13;;;10.13;;
15285;SDS011;7744;52.172;10.668;2022-08-20T02:27:11;12.57;;;11.38;;
15285;SDS011;7744;52.172;10.668;2022-08-20T02:29:38;10.95;;;10.05;;
15285;SDS011;7744;52.172;10.668;2022-08-20T02:32:04;10.93;;;9.98;;
15285;SDS011;7744;52.172;10.668;2022-08-20T02:34:32;12.18;;;11.07;;
15285;SDS011;7744;52.172;10.668;2022-08-20T02:36:59;11.18;;;10.10;;
15285;SDS011;7744;52.172;10.668;2022-08-20T02:39:25;10.80;;;9.95;;
15285;SDS011;7744;52.172;10.668;2022-08-20T02:41:51;11.18;;;10.18;;
15285;SDS011;7744;52.172;10.668;2022-08-20T02:44:17;11.50;;;10.50;;
15285;SDS011;7744;52.172;10.668;2022-08-20T02:46:44;11.65;;;10.63;;
15285;SDS011;7744;52.172;10.668;2022-08-20T02:49:11;10.25;;;9.45;;
15285;SDS011;7744;52.172;10.668;2022-08-20T02:51:37;11.00;;;10.00;;
15285;SDS011;7744;52.172;10.668;2022-08-20T02:54:03;11.30;;;10.25;;
15285;SDS011;7744;52.172;10.668;2022-08-20T02:56:29;11.18;;;10.27;;
15285;SDS011;7744;52.172;10.668;2022-08-20T02:58:55;12.10;;;10.82;;
15285;SDS011;7744;52.172;10.668;2022-08-20T03:01:21;12.13;;;11.00;;
15285;SDS011;7744;52.172;10.668;2022-08-20T03:03:47;12.18;;;10.98;;
15285;SDS011;7744;52.172;10.668;2022-08-20T03:06:13;11.40;;;10.45;;
15285;SDS011;7744;52.172;10.668;2022-08-20T03:08:39;11.27;;;10.30;;
15285;SDS011;7744;52.172;10.668;2022-08-20T03:11:05;11.95;;;10.85;;
15285;SDS011;7744;52.172;10.668;2022-08-20T03:13:31;11.50;;;10.52;;
15285;SDS011;7744;52.172;10.668;2022-08-20T03:15:58;11.23;;;10.20;;
15285;SDS011;7744;52.172;10.668;2022-08-20T03:18:26;10.35;;;9.52;;
15285;SDS011;7744;52.172;10.668;2022-08-20T03:20:52;10.90;;;10.00;;
15285;SDS011;7744;52.172;10.668;2022-08-20T03:23:19;11.05;;;10.15;;
15285;SDS011;7744;52.172;10.668;2022-08-20T03:25:45;11.77;;;10.77;;
15285;SDS011;7744;52.172;10.668;2022-08-20T03:28:12;11.13;;;10.23;;
15285;SDS011;7744;52.172;10.668;2022-08-20T03:30:38;11.85;;;10.85;;
15285;SDS011;7744;52.172;10.668;2022-08-20T03:33:05;11.38;;;10.32;;
15285;SDS011;7744;52.172;10.668;2022-08-20T03:35:31;11.35;;;10.38;;
15285;SDS011;7744;52.172;10.668;2022-08-20T03:37:58;11.50;;;10.50;;
15285;SDS011;7744;52.172;10.668;2022-08-20T03:40:25;11.70;;;10.60;;
15285;SDS011;7744;52.172;10.668;2022-08-20T03:42:51;11.68;;;10.77;;
15285;SDS011;7744;52.172;10.668;2022-08-20T03:45:18;11.52;;;10.52;;
15285;SDS011;7744;52.172;10.668;2022-08-20T03:47:44;11.05;;;10.00;;
15285;SDS011;7744;52.172;10.668;2022-08-20T03:50:10;11.07;;;10.07;;
15285;SDS011;7744;52.172;10.668;2022-08-20T03:52:37;11.05;;;10.15;;
15285;SDS011;7744;52.172;10.668;2022-08-20T03:55:05;12.02;;;10.93;;
15285;SDS011;7744;52.172;10.668;2022-08-20T03:57:31;12.00;;;10.80;;
15285;SDS011;7744;52.172;10.668;2022-08-20T03:59:57;13.20;;;12.00;;
15285;SDS011;7744;52.172;10.668;2022-08-20T04:02:24;12.77;;;11.68;;
15285;SDS011;7744;52.172;10.668;2022-08-20T04:04:51;13.20;;;11.90;;
15285;SDS011;7744;52.172;10.668;2022-08-20T04:07:18;12.82;;;11.73;;
15285;SDS011;7744;52.172;10.668;2022-08-20T04:09:49;12.93;;;11.82;;
15285;SDS011;7744;52.172;10.668;2022-08-20T04:12:15;13.18;;;11.88;;
15285;SDS011;7744;52.172;10.668;2022-08-20T04:14:41;12.75;;;11.75;;
15285;SDS011;7744;52.172;10.668;2022-08-20T04:17:08;12.60;;;11.35;;
15285;SDS011;7744;52.172;10.668;2022-08-20T04:19:36;11.48;;;10.48;;
15285;SDS011;7744;52.172;10.668;2022-08-20T04:22:02;12.77;;;11.68;;
15285;SDS011;7744;52.172;10.668;2022-08-20T04:24:28;11.50;;;10.55;;
15285;SDS011;7744;52.172;10.668;2022-08-20T04:26:54;11.02;;;10.10;;
15285;SDS011;7744;52.172;10.668;2022-08-20T04:29:21;11.40;;;10.27;;
15285;SDS011;7744;52.172;10.668;2022-08-20T04:31:48;11.15;;;10.15;;
15285;SDS011;7744;52.172;10.668;2022-08-20T04:34:14;11.70;;;10.52;;
15285;SDS011;7744;52.172;10.668;2022-08-20T04:36:43;12.00;;;10.93;;
15285;SDS011;7744;52.172;10.668;2022-08-20T04:39:11;12.10;;;10.85;;
15285;SDS011;7744;52.172;10.668;2022-08-20T04:41:37;12.18;;;11.07;;
15285;SDS011;7744;52.172;10.668;2022-08-20T04:44:03;12.75;;;11.55;;
15285;SDS011;7744;52.172;10.668;2022-08-20T04:46:29;12.52;;;11.32;;
15285;SDS011;7744;52.172;10.668;2022-08-20T04:48:56;13.35;;;12.05;;
15285;SDS011;7744;52.172;10.668;2022-08-20T04:51:22;11.80;;;10.80;;
15285;SDS011;7744;52.172;10.668;2022-08-20T04:53:48;12.82;;;11.63;;
15285;SDS011;7744;52.172;10.668;2022-08-20T04:56:14;12.63;;;11.52;;
15285;SDS011;7744;52.172;10.668;2022-08-20T04:58:43;13.15;;;11.98;;
15285;SDS011;7744;52.172;10.668;2022-08-20T05:01:14;13.02;;;11.82;;
15285;SDS011;7744;52.172;10.668;2022-08-20T05:03:40;12.65;;;11.55;;
15285;SDS011;7744;52.172;10.668;2022-08-20T05:06:07;12.57;;;11.48;;
15285;SDS011;7744;52.172;10.668;2022-08-20T05:08:34;12.95;;;11.40;;
15285;SDS011;7744;52.172;10.668;2022-08-20T05:11:00;12.45;;;11.35;;
15285;SDS011;7744;52.172;10.668;2022-08-20T05:13:26;11.75;;;10.77;;
15285;SDS011;7744;52.172;10.668;2022-08-20T05:15:52;13.27;;;12.07;;
15285;SDS011;7744;52.172;10.668;2022-08-20T05:18:20;12.68;;;11.48;;
15285;SDS011;7744;52.172;10.668;2022-08-20T05:20:47;11.68;;;10.65;;
15285;SDS011;7744;52.172;10.668;2022-08-20T05:23:14;11.80;;;10.70;;
15285;SDS011;7744;52.172;10.668;2022-08-20T05:25:41;11.25;;;10.35;;
15285;SDS011;7744;52.172;10.668;2022-08-20T05:28:11;12.00;;;11.00;;
15285;SDS011;7744;52.172;10.668;2022-08-20T05:30:42;12.60;;;11.38;;
15285;SDS011;7744;52.172;10.668;2022-08-20T05:33:09;10.80;;;9.70;;
15285;SDS011;7744;52.172;10.668;2022-08-20T05:35:38;11.57;;;10.45;;
15285;SDS011;7744;52.172;10.668;2022-08-20T05:38:04;12.15;;;11.15;;
15285;SDS011;7744;52.172;10.668;2022-08-20T05:40:30;12.00;;;11.00;;
15285;SDS011;7744;52.172;10.668;2022-08-20T05:42:56;13.73;;;11.15;;
15285;SDS011;7744;52.172;10.668;2022-08-20T05:45:22;12.40;;;11.27;;
15285;SDS011;7744;52.172;10.668;2022-08-20T05:47:49;11.55;;;10.65;;
15285;SDS011;7744;52.172;10.668;2022-08-20T05:50:15;11.88;;;10.88;;
15285;SDS011;7744;52.172;10.668;2022-08-20T05:52:41;11.88;;;10.88;;
15285;SDS011;7744;52.172;10.668;2022-08-20T05:55:08;11.88;;;10.68;;
15285;SDS011;7744;52.172;10.668;2022-08-20T05:57:37;11.45;;;10.55;;
15285;SDS011;7744;52.172;10.668;2022-08-20T06:00:05;11.75;;;10.75;;
15285;SDS011;7744;52.172;10.668;2022-08-20T06:02:31;12.25;;;11.05;;
15285;SDS011;7744;52.172;10.668;2022-08-20T07:24:39;10.88;;;9.88;;
15285;SDS011;7744;52.172;10.668;2022-08-20T07:27:05;11.15;;;10.25;;
15285;SDS011;7744;52.172;10.668;2022-08-20T07:29:30;10.73;;;9.93;;
15285;SDS011;7744;52.172;10.668;2022-08-20T07:32:15;10.60;;;9.70;;
15285;SDS011;7744;52.172;10.668;2022-08-20T07:35:00;10.80;;;9.80;;
15285;SDS011;7744;52.172;10.668;2022-08-20T07:37:26;11.30;;;10.38;;
15285;SDS011;7744;52.172;10.668;2022-08-20T07:39:52;11.68;;;10.68;;
15285;SDS011;7744;52.172;10.668;2022-08-20T07:42:18;10.82;;;9.80;;
15285;SDS011;7744;52.172;10.668;2022-08-20T07:44:44;9.95;;;9.10;;
15285;SDS011;7744;52.172;10.668;2022-08-20T07:47:10;10.40;;;9.45;;
15285;SDS011;7744;52.172;10.668;2022-08-20T07:49:37;10.60;;;9.70;;
15285;SDS011;7744;52.172;10.668;2022-08-20T07:52:03;10.82;;;9.93;;
15285;SDS011;7744;52.172;10.668;2022-08-20T07:54:29;9.65;;;8.65;;
15285;SDS011;7744;52.172;10.668;2022-08-20T07:56:58;9.13;;;8.35;;
15285;SDS011;7744;52.172;10.668;2022-08-20T07:59:26;8.63;;;7.80;;
15285;SDS011;7744;52.172;10.668;2022-08-20T08:01:53;9.60;;;7.32;;
15285;SDS011;7744;52.172;10.668;2022-08-20T08:04:18;7.75;;;7.15;;
15285;SDS011;7744;52.172;10.668;2022-08-20T08:06:44;7.93;;;7.22;;
15285;SDS011;7744;52.172;10.668;2022-08-20T08:09:10;7.40;;;6.80;;
15285;SDS011;7744;52.172;10.668;2022-08-20T08:11:39;7.90;;;7.20;;
15285;SDS011;7744;52.172;10.668;2022-08-20T08:14:07;7.22;;;6.53;;
15285;SDS011;7744;52.172;10.668;2022-08-20T08:16:35;7.88;;;7.28;;
15285;SDS011;7744;52.172;10.668;2022-08-20T08:19:03;7.95;;;7.25;;
15285;SDS011;7744;52.172;10.668;2022-08-20T08:21:32;8.35;;;7.47;;
15285;SDS011;7744;52.172;10.668;2022-08-20T08:23:58;7.93;;;7.28;;
15285;SDS011;7744;52.172;10.668;2022-08-20T08:26:23;8.05;;;7.28;;
15285;SDS011;7744;52.172;10.668;2022-08-20T08:28:50;9.57;;;7.72;;
15285;SDS011;7744;52.172;10.668;2022-08-20T08:31:15;8.40;;;7.70;;
15285;SDS011;7744;52.172;10.668;2022-08-20T08:33:41;8.57;;;7.88;;
15285;SDS011;7744;52.172;10.668;2022-08-20T08:36:11;7.55;;;6.82;;
15285;SDS011;7744;52.172;10.668;2022-08-20T08:38:39;8.60;;;7.80;;
15285;SDS011;7744;52.172;10.668;2022-08-20T08:41:18;8.68;;;7.93;;
15285;SDS011;7744;52.172;10.668;2022-08-20T08:43:50;9.50;;;8.60;;
15285;SDS011;7744;52.172;10.668;2022-08-20T08:46:18;8.75;;;8.05;;
15285;SDS011;7744;52.172;10.668;2022-08-20T08:48:49;9.90;;;9.00;;
15285;SDS011;7744;52.172;10.668;2022-08-20T08:51:28;9.85;;;8.93;;
15285;SDS011;7744;52.172;10.668;2022-08-20T08:54:01;8.57;;;7.88;;
15285;SDS011;7744;52.172;10.668;2022-08-20T08:56:29;8.63;;;7.93;;
15285;SDS011;7744;52.172;10.668;2022-08-20T08:59:03;9.65;;;8.80;;
15285;SDS011;7744;52.172;10.668;2022-08-20T09:01:33;9.55;;;8.75;;
15285;SDS011;7744;52.172;10.668;2022-08-20T09:04:09;8.95;;;8.15;;
15285;SDS011;7744;52.172;10.668;2022-08-20T09:06:39;10.13;;;9.13;;
15285;SDS011;7744;52.172;10.668;2022-08-20T09:09:06;9.15;;;8.35;;
15285;SDS011;7744;52.172;10.668;2022-08-20T09:11:45;8.48;;;7.75;;
15285;SDS011;7744;52.172;10.668;2022-08-20T09:14:13;8.15;;;6.93;;
15285;SDS011;7744;52.172;10.668;2022-08-20T09:16:39;7.40;;;6.80;;
15285;SDS011;7744;52.172;10.668;2022-08-20T09:19:04;9.55;;;8.65;;
15285;SDS011;7744;52.172;10.668;2022-08-20T09:21:30;9.15;;;8.35;;
15285;SDS011;7744;52.172;10.668;2022-08-20T09:23:55;8.30;;;7.50;;
15285;SDS011;7744;52.172;10.668;2022-08-20T09:26:21;8.30;;;7.63;;
15285;SDS011;7744;52.172;10.668;2022-08-20T09:28:46;8.70;;;7.80;;
15285;SDS011;7744;52.172;10.668;2022-08-20T09:31:12;13.02;;;9.02;;
15285;SDS011;7744;52.172;10.668;2022-08-20T09:33:37;9.52;;;8.63;;
15285;SDS011;7744;52.172;10.668;2022-08-20T09:36:03;10.02;;;9.02;;
15285;SDS011;7744;52.172;10.668;2022-08-20T09:38:29;9.05;;;8.18;;
15285;SDS011;7744;52.172;10.668;2022-08-20T09:40:54;9.65;;;8.75;;
15285;SDS011;7744;52.172;10.668;2022-08-20T09:43:20;9.25;;;8.30;;
15285;SDS011;7744;52.172;10.668;2022-08-20T09:45:46;9.27;;;8.35;;
15285;SDS011;7744;52.172;10.668;2022-08-20T09:48:11;8.88;;;8.18;;
15285;SDS011;7744;52.172;10.668;2022-08-20T09:50:38;10.20;;;9.30;;
15285;SDS011;7744;52.172;10.668;2022-08-20T09:53:08;10.48;;;9.57;;
15285;SDS011;7744;52.172;10.668;2022-08-20T09:55:36;10.30;;;9.45;;
